Time;durP1;ratioP1;P1;durP2;ratioP2;P2;SDS_P1;SDS_P2;PMS_P1;PMS_P2;Temp;Humidity;BMP_temperature;BMP_pressure;BME280_temperature;BME280_humidity;BME280_pressure;Samples;Min_cycle;Max_cycle;Signal;HPM_P1;HPM_P2
2020/11/07 00:01:58;;;;;;;2.6;1.7;;;;;;;;;;;;;
2020/11/07 00:04:24;;;;;;;2;1.5;;;;;;;;;;;;;
2020/11/07 00:06:49;;;;;;;2.5;1.2;;;;;;;;;;;;;
2020/11/07 00:09:15;;;;;;;1.8;1.1;;;;;;;;;;;;;
2020/11/07 00:11:40;;;;;;;2.1;1.4;;;;;;;;;;;;;
2020/11/07 00:14:06;;;;;;;2.5;1.5;;;;;;;;;;;;;
2020/11/07 00:16:31;;;;;;;2.6;1.5;;;;;;;;;;;;;
2020/11/07 00:18:56;;;;;;;3.3;1.6;;;;;;;;;;;;;
2020/11/07 00:21:21;;;;;;;1.3;1.2;;;;;;;;;;;;;
2020/11/07 00:23:46;;;;;;;1.9;1.3;;;;;;;;;;;;;
2020/11/07 00:26:12;;;;;;;3.5;1.3;;;;;;;;;;;;;
2020/11/07 00:28:37;;;;;;;1.7;1.4;;;;;;;;;;;;;
2020/11/07 00:31:05;;;;;;;2.9;1.3;;;;;;;;;;;;;
2020/11/07 00:33:30;;;;;;;3;1.6;;;;;;;;;;;;;
2020/11/07 00:35:56;;;;;;;4.4;1.6;;;;;;;;;;;;;
2020/11/07 00:38:21;;;;;;;1.7;1.2;;;;;;;;;;;;;
2020/11/07 00:40:52;;;;;;;4.1;1.6;;;;;;;;;;;;;
2020/11/07 00:43:17;;;;;;;2.4;1.6;;;;;;;;;;;;;
2020/11/07 00:45:43;;;;;;;3.2;1.5;;;;;;;;;;;;;
2020/11/07 00:48:08;;;;;;;2.2;1.4;;;;;;;;;;;;;
2020/11/07 00:50:33;;;;;;;3.5;1.5;;;;;;;;;;;;;
2020/11/07 00:52:58;;;;;;;1.6;1.3;;;;;;;;;;;;;
2020/11/07 00:55:23;;;;;;;2.2;1.2;;;;;;;;;;;;;
2020/11/07 00:57:48;;;;;;;2.9;1.9;;;;;;;;;;;;;
2020/11/07 01:00:14;;;;;;;2;1.4;;;;;;;;;;;;;
2020/11/07 01:02:39;;;;;;;2.9;1.8;;;;;;;;;;;;;
2020/11/07 01:05:05;;;;;;;3;1.4;;;;;;;;;;;;;
2020/11/07 01:07:30;;;;;;;2;1.5;;;;;;;;;;;;;
2020/11/07 01:09:55;;;;;;;1.8;1.4;;;;;;;;;;;;;
2020/11/07 01:12:20;;;;;;;2.5;1.5;;;;;;;;;;;;;
2020/11/07 01:14:46;;;;;;;4.8;1.6;;;;;;;;;;;;;
2020/11/07 01:17:11;;;;;;;2.2;1.4;;;;;;;;;;;;;
2020/11/07 01:19:37;;;;;;;1.7;1.3;;;;;;;;;;;;;
2020/11/07 01:22:02;;;;;;;1.8;1.1;;;;;;;;;;;;;
2020/11/07 01:24:29;;;;;;;3.8;1.6;;;;;;;;;;;;;
2020/11/07 01:26:54;;;;;;;7.6;1.5;;;;;;;;;;;;;
2020/11/07 01:29:20;;;;;;;1.8;1.2;;;;;;;;;;;;;
2020/11/07 01:31:45;;;;;;;3.1;1.5;;;;;;;;;;;;;
2020/11/07 01:34:12;;;;;;;2.9;1.4;;;;;;;;;;;;;
2020/11/07 01:36:37;;;;;;;1.4;1.1;;;;;;;;;;;;;
2020/11/07 01:39:03;;;;;;;1.5;1.2;;;;;;;;;;;;;
2020/11/07 01:41:27;;;;;;;2.8;1.3;;;;;;;;;;;;;
2020/11/07 01:43:53;;;;;;;1.4;1.1;;;;;;;;;;;;;
2020/11/07 01:46:19;;;;;;;4.9;1.4;;;;;;;;;;;;;
2020/11/07 01:48:45;;;;;;;2.4;1.6;;;;;;;;;;;;;
2020/11/07 01:51:10;;;;;;;1.6;0.9;;;;;;;;;;;;;
2020/11/07 01:53:35;;;;;;;3.1;1.5;;;;;;;;;;;;;
2020/11/07 01:56:00;;;;;;;1.7;1.1;;;;;;;;;;;;;
2020/11/07 01:58:26;;;;;;;1.4;1.2;;;;;;;;;;;;;
2020/11/07 02:00:51;;;;;;;1.4;1.1;;;;;;;;;;;;;
2020/11/07 02:03:16;;;;;;;4.5;2.4;;;;;;;;;;;;;
2020/11/07 02:05:41;;;;;;;7.3;3.5;;;;;;;;;;;;;
2020/11/07 02:08:06;;;;;;;3.3;2.2;;;;;;;;;;;;;
2020/11/07 02:10:32;;;;;;;4.7;2.4;;;;;;;;;;;;;
2020/11/07 02:12:58;;;;;;;2.5;1.3;;;;;;;;;;;;;
2020/11/07 02:15:25;;;;;;;1.2;1.1;;;;;;;;;;;;;
2020/11/07 02:17:51;;;;;;;1.5;0.8;;;;;;;;;;;;;
2020/11/07 02:20:16;;;;;;;1.1;0.9;;;;;;;;;;;;;
2020/11/07 02:22:42;;;;;;;1.1;1;;;;;;;;;;;;;
2020/11/07 02:25:07;;;;;;;1.9;1.3;;;;;;;;;;;;;
2020/11/07 02:27:32;;;;;;;2.1;1.1;;;;;;;;;;;;;
2020/11/07 02:29:57;;;;;;;1.6;1.3;;;;;;;;;;;;;
2020/11/07 02:32:23;;;;;;;2.2;0.9;;;;;;;;;;;;;
2020/11/07 02:34:48;;;;;;;2;1.2;;;;;;;;;;;;;
2020/11/07 02:37:14;;;;;;;1.6;1.1;;;;;;;;;;;;;
2020/11/07 02:39:39;;;;;;;1.4;1.2;;;;;;;;;;;;;
2020/11/07 03:51:49;;;;;;;3.1;1.1;;;;;;;;;;;;;
2020/11/07 03:54:14;;;;;;;1.7;1.2;;;;;;;;;;;;;
2020/11/07 03:56:41;;;;;;;2.4;1.6;;;;;;;;;;;;;
2020/11/07 03:59:06;;;;;;;0.8;0.8;;;;;;;;;;;;;
2020/11/07 04:02:30;;;;;;;3;1.1;;;;;;;3.59;92.9834;948.1752;;;;
2020/11/07 04:04:58;;;;;;;1.7;1;;;;;;;3.49;93.55957;948.2188;;;;
2020/11/07 04:07:23;;;;;;;2.5;1.3;;;;;;;3.58;93.80371;948.2317;;;;
2020/11/07 04:09:51;;;;;;;2;1.2;;;;;;;3.49;94.42383;948.2128;;;;
2020/11/07 04:12:17;;;;;;;1.5;0.9;;;;;;;3.55;94.22266;948.2258;;;;
2020/11/07 04:14:41;;;;;;;2.6;1.1;;;;;;;3.56;93.51855;948.2596;;;;
2020/11/07 04:17:08;;;;;;;1.7;1.2;;;;;;;3.6;93.0459;948.2775;;;;
2020/11/07 04:19:33;;;;;;;1.5;1;;;;;;;3.62;92.40723;948.3069;;;;
2020/11/07 04:21:58;;;;;;;1.7;1.1;;;;;;;3.68;91.98242;948.2653;;;;
2020/11/07 04:24:23;;;;;;;1.2;0.9;;;;;;;3.64;91.92969;948.1957;;;;
2020/11/07 04:26:51;;;;;;;1.1;1;;;;;;;3.55;92.39355;948.1457;;;;
2020/11/07 04:29:16;;;;;;;1.5;1.2;;;;;;;3.4;93.26953;948.1809;;;;
2020/11/07 04:31:44;;;;;;;3;1.5;;;;;;;3.35;93.88672;948.1664;;;;
2020/11/07 04:34:09;;;;;;;1;0.9;;;;;;;3.43;93.5791;948.1605;;;;
2020/11/07 04:36:34;;;;;;;3.1;1.2;;;;;;;3.62;92.91309;948.2092;;;;
2020/11/07 04:38:59;;;;;;;1.8;1.1;;;;;;;3.7;92.39355;948.0678;;;;
2020/11/07 04:41:26;;;;;;;2.3;1.2;;;;;;;3.65;92.57227;948.1868;;;;
2020/11/07 04:43:51;;;;;;;1.9;1.2;;;;;;;3.71;92.12402;948.1613;;;;
2020/11/07 04:46:16;;;;;;;2.2;1.3;;;;;;;3.45;93.13574;948.1077;;;;
2020/11/07 04:48:42;;;;;;;5.1;1.1;;;;;;;3.37;93.99414;948.1133;;;;
2020/11/07 04:51:10;;;;;;;2.2;1.1;;;;;;;3.55;93.3916;948.0778;;;;
2020/11/07 04:53:35;;;;;;;2.9;1;;;;;;;3.55;92.64063;948.0339;;;;
2020/11/07 04:56:00;;;;;;;2.1;1.3;;;;;;;3.29;93.71777;947.954;;;;
2020/11/07 04:58:25;;;;;;;1.4;1;;;;;;;3.16;94.56348;948.0428;;;;
2020/11/07 05:00:54;;;;;;;3;1.2;;;;;;;3.1;95.28027;948.0264;;;;
2020/11/07 05:03:20;;;;;;;3;1.6;;;;;;;3.15;95.45898;947.9989;;;;
2020/11/07 05:05:45;;;;;;;2.6;1.5;;;;;;;3.25;95.43652;948.0093;;;;
2020/11/07 05:08:10;;;;;;;7.4;1.5;;;;;;;3.25;95.3125;947.9803;;;;
2020/11/07 05:10:36;;;;;;;2.7;1.5;;;;;;;3.29;95.12305;947.9692;;;;
2020/11/07 05:13:00;;;;;;;2.1;1.5;;;;;;;3.39;94.2334;948.0176;;;;
2020/11/07 05:15:27;;;;;;;3.3;1.5;;;;;;;3.25;95.04395;947.911;;;;
2020/11/07 05:17:52;;;;;;;1.8;1.2;;;;;;;3.28;95.09668;947.9456;;;;
2020/11/07 05:20:17;;;;;;;3.3;1.8;;;;;;;3.29;95.3457;947.8926;;;;
2020/11/07 05:22:42;;;;;;;3.7;1.7;;;;;;;3.23;95.62305;947.9612;;;;
2020/11/07 05:25:10;;;;;;;5;1.8;;;;;;;3.15;96.75;948.0061;;;;
2020/11/07 05:27:35;;;;;;;1.9;1.4;;;;;;;3.21;96.29297;947.9822;;;;
2020/11/07 05:30:00;;;;;;;1.9;1.5;;;;;;;3.25;95.7168;947.9989;;;;
2020/11/07 05:32:26;;;;;;;2.2;1.6;;;;;;;3.34;94.77344;947.952;;;;
2020/11/07 05:34:51;;;;;;;2.1;1.6;;;;;;;3.37;93.91504;948.0052;;;;
2020/11/07 05:37:16;;;;;;;3.7;1.6;;;;;;;3.35;93.74121;948.0281;;;;
2020/11/07 05:39:41;;;;;;;2.4;1.3;;;;;;;3.4;94.01074;948.0519;;;;
2020/11/07 05:42:07;;;;;;;2.1;1.6;;;;;;;3.45;93.43945;947.9988;;;;
2020/11/07 05:44:32;;;;;;;4.5;1.6;;;;;;;3.47;93.08203;948.087;;;;
2020/11/07 05:46:57;;;;;;;2.4;1.5;;;;;;;3.39;93.2793;948.0598;;;;
2020/11/07 05:49:23;;;;;;;5;2.1;;;;;;;3.44;93.19922;948.0942;;;;
2020/11/07 05:51:48;;;;;;;2.6;1.5;;;;;;;3.35;93.44922;948.0209;;;;
2020/11/07 05:54:16;;;;;;;3.2;1.2;;;;;;;3.48;92.84961;948.0107;;;;
2020/11/07 05:56:41;;;;;;;2.9;1;;;;;;;3.48;92.61426;948.0186;;;;
2020/11/07 05:59:06;;;;;;;2.5;1.2;;;;;;;3.44;92.8623;948.0949;;;;
2020/11/07 06:01:31;;;;;;;1.8;1;;;;;;;3.49;93.07813;948.1239;;;;
2020/11/07 06:04:02;;;;;;;1.9;1.2;;;;;;;3.56;92.70801;948.1484;;;;
2020/11/07 06:06:27;;;;;;;2.1;1;;;;;;;3.66;92.00098;948.0692;;;;
2020/11/07 06:08:53;;;;;;;1.7;1;;;;;;;3.73;91.67969;948.0678;;;;
2020/11/07 06:11:18;;;;;;;1.6;1.2;;;;;;;3.81;91.33594;948.0672;;;;
2020/11/07 06:13:43;;;;;;;1.9;1.1;;;;;;;3.83;91.11719;948.1911;;;;
2020/11/07 06:16:09;;;;;;;2.4;1.2;;;;;;;3.79;90.79199;948.2401;;;;
2020/11/07 06:18:35;;;;;;;1.6;1.2;;;;;;;3.84;90.52344;948.2171;;;;
2020/11/07 06:21:00;;;;;;;2.4;1.5;;;;;;;3.75;90.77148;948.2025;;;;
2020/11/07 06:23:25;;;;;;;2;1.4;;;;;;;3.65;91.26953;948.1975;;;;
2020/11/07 06:25:50;;;;;;;3.9;1.6;;;;;;;3.57;91.68945;948.171;;;;
2020/11/07 06:28:15;;;;;;;1.8;1.3;;;;;;;3.5;92.01172;948.218;;;;
2020/11/07 06:30:43;;;;;;;4.3;1.9;;;;;;;3.36;92.2959;948.2569;;;;
2020/11/07 06:33:08;;;;;;;6;2.6;;;;;;;3.32;93.07227;948.2319;;;;
2020/11/07 06:35:34;;;;;;;2.1;1.4;;;;;;;3.33;93.24316;948.2717;;;;
2020/11/07 06:37:59;;;;;;;2.5;1.7;;;;;;;3.44;92.33691;948.3386;;;;
2020/11/07 06:40:28;;;;;;;2.1;1.5;;;;;;;3.39;93.05469;948.2144;;;;
2020/11/07 06:42:53;;;;;;;1.9;1.4;;;;;;;3.42;93.35449;948.2667;;;;
2020/11/07 06:45:28;;;;;;;2.2;1.4;;;;;;;3.6;92.71973;948.3448;;;;
2020/11/07 06:47:54;;;;;;;5.1;1.5;;;;;;;3.77;91.97949;948.3856;;;;
2020/11/07 06:50:20;;;;;;;4.2;1.4;;;;;;;3.89;91.87012;948.3369;;;;
2020/11/07 06:52:45;;;;;;;1.5;1.1;;;;;;;4.25;90.9248;948.3546;;;;
2020/11/07 06:55:12;;;;;;;3.5;1.7;;;;;;;4.43;90.24219;948.4922;;;;
2020/11/07 06:57:37;;;;;;;6.5;1.7;;;;;;;4.71;89.97559;948.4249;;;;
2020/11/07 07:00:04;;;;;;;10.2;5;;;;;;;5.15;90.00293;948.3672;;;;
2020/11/07 07:02:28;;;;;;;20;11;;;;;;;5.53;89.64063;948.4346;;;;
2020/11/07 07:04:53;;;;;;;5.9;3;;;;;;;5.81;87.59863;948.4372;;;;
2020/11/07 07:07:19;;;;;;;3.7;2.1;;;;;;;6.1;85.83887;948.4141;;;;
2020/11/07 07:09:44;;;;;;;3;2.1;;;;;;;6.1;82.61816;948.3705;;;;
2020/11/07 07:12:10;;;;;;;8.7;5.5;;;;;;;6.27;82.18555;948.2985;;;;
2020/11/07 07:14:38;;;;;;;60.2;31.2;;;;;;;6.48;81.70703;948.3876;;;;
2020/11/07 07:17:03;;;;;;;36.2;15.9;;;;;;;6.58;80.70996;948.3664;;;;
2020/11/07 07:19:31;;;;;;;6.1;2.9;;;;;;;6.95;79.1582;948.4711;;;;
2020/11/07 07:21:56;;;;;;;5.3;2.4;;;;;;;6.93;78.28516;948.4855;;;;
2020/11/07 07:24:21;;;;;;;11.6;4;;;;;;;7.16;77.64453;948.4352;;;;
2020/11/07 07:26:48;;;;;;;5.3;2.5;;;;;;;7.25;76.8457;948.4302;;;;
2020/11/07 07:29:13;;;;;;;7.3;1.9;;;;;;;7.7;75.78027;948.4522;;;;
2020/11/07 07:31:40;;;;;;;4.1;1.9;;;;;;;7.6;75.45703;948.4475;;;;
2020/11/07 07:34:09;;;;;;;2.6;1.7;;;;;;;7.81;75.3916;948.3805;;;;
2020/11/07 07:36:34;;;;;;;3.9;1.4;;;;;;;8.2;74.04004;948.4041;;;;
2020/11/07 07:38:59;;;;;;;5.6;1.4;;;;;;;8.65;72.07129;948.3808;;;;
2020/11/07 07:41:24;;;;;;;2.9;1.5;;;;;;;8.94;70.4707;948.4236;;;;
2020/11/07 07:43:52;;;;;;;1.5;0.9;;;;;;;9.28;69.82227;948.3071;;;;
2020/11/07 07:46:17;;;;;;;1.7;1.1;;;;;;;9.76;68.18848;948.3367;;;;
2020/11/07 07:48:46;;;;;;;4.3;1.8;;;;;;;10.01;67.36133;948.3611;;;;
2020/11/07 07:51:11;;;;;;;2.7;1.5;;;;;;;10.62;65.27637;948.3172;;;;
2020/11/07 07:53:37;;;;;;;5.7;3.6;;;;;;;11.44;62.09375;948.2859;;;;
2020/11/07 07:56:02;;;;;;;4.3;1.3;;;;;;;11.79;60.6543;948.3267;;;;
2020/11/07 07:58:29;;;;;;;3.1;1.4;;;;;;;12.67;58.23047;948.1325;;;;
2020/11/07 08:00:56;;;;;;;1.1;0.8;;;;;;;13.34;57.18262;948.2347;;;;
2020/11/07 08:03:26;;;;;;;1.1;1;;;;;;;13.84;54.2793;948.2209;;;;
2020/11/07 08:05:51;;;;;;;4.4;2.2;;;;;;;14.83;52.53516;948.1797;;;;
2020/11/07 08:08:18;;;;;;;3.5;1.9;;;;;;;15.23;50.30859;948.1475;;;;
2020/11/07 08:10:43;;;;;;;3.3;1.4;;;;;;;16.05;48.06934;948.1795;;;;
2020/11/07 08:13:10;;;;;;;6.2;3.1;;;;;;;16.47;46.88672;948.1679;;;;
2020/11/07 08:15:37;;;;;;;5.4;2.8;;;;;;;16.79;46.25;948.1828;;;;
2020/11/07 08:18:04;;;;;;;1.6;1;;;;;;;16.95;44.79492;948.1777;;;;
2020/11/07 08:20:37;;;;;;;1.2;0.6;;;;;;;16.46;44.24707;948.1437;;;;
2020/11/07 08:23:02;;;;;;;5.6;2.4;;;;;;;16.77;46.27051;948.1297;;;;
2020/11/07 08:25:28;;;;;;;2;1;;;;;;;16.5;46.11426;948.1278;;;;
2020/11/07 08:27:53;;;;;;;1.3;0.8;;;;;;;16.16;46.21777;948.0972;;;;
2020/11/07 08:30:25;;;;;;;1;0.9;;;;;;;15.77;46.80078;948.0129;;;;
2020/11/07 08:32:53;;;;;;;1.7;0.9;;;;;;;15.43;49.8125;948.0401;;;;
2020/11/07 08:35:18;;;;;;;2.7;1.3;;;;;;;15.35;49.79297;948.008;;;;
2020/11/07 08:37:44;;;;;;;1.8;1.4;;;;;;;15.32;49.91602;947.9669;;;;
2020/11/07 08:40:09;;;;;;;2.1;1.3;;;;;;;15.32;50.06543;947.9692;;;;
2020/11/07 08:42:36;;;;;;;5.1;2.6;;;;;;;15;51.22852;947.9935;;;;
2020/11/07 08:45:01;;;;;;;2.9;1.5;;;;;;;14;53.34473;947.9442;;;;
2020/11/07 08:47:29;;;;;;;4.2;3;;;;;;;12.85;57.30078;947.9966;;;;
2020/11/07 08:49:55;;;;;;;3.9;2.2;;;;;;;11.96;56.93262;948.0199;;;;
2020/11/07 08:52:20;;;;;;;2.5;2;;;;;;;11.3;63.71973;947.8812;;;;
2020/11/07 08:54:45;;;;;;;2;1;;;;;;;10.96;64.62988;947.8898;;;;
2020/11/07 08:57:12;;;;;;;1.5;1;;;;;;;10.75;65.34082;947.8901;;;;
2020/11/07 08:59:37;;;;;;;0.7;0.6;;;;;;;10.32;66.71484;947.8376;;;;
2020/11/07 09:02:05;;;;;;;3.7;1.6;;;;;;;10.04;68.88379;947.7994;;;;
2020/11/07 09:04:30;;;;;;;0.6;0.6;;;;;;;9.98;68.47461;947.772;;;;
2020/11/07 09:06:56;;;;;;;1.8;1.1;;;;;;;9.98;70.09277;947.6813;;;;
2020/11/07 09:09:21;;;;;;;3.1;0.9;;;;;;;9.98;67.90332;947.6167;;;;
2020/11/07 09:11:46;;;;;;;1;0.6;;;;;;;9.84;68.14453;947.6114;;;;
2020/11/07 09:14:12;;;;;;;2.1;1;;;;;;;9.77;68.95313;947.5814;;;;
2020/11/07 09:16:39;;;;;;;1.8;1.1;;;;;;;9.86;70.66797;947.5867;;;;
2020/11/07 09:19:04;;;;;;;1.6;1.1;;;;;;;9.86;69.57227;947.5419;;;;
2020/11/07 09:21:31;;;;;;;8.3;1.2;;;;;;;10.07;69.68652;947.5424;;;;
2020/11/07 09:23:56;;;;;;;2.4;1.4;;;;;;;10.2;69.01172;947.5195;;;;
2020/11/07 09:26:23;;;;;;;9.3;3.8;;;;;;;10.35;68.29395;947.4928;;;;
2020/11/07 09:28:49;;;;;;;6.8;3.1;;;;;;;10.45;66.64355;947.4621;;;;
2020/11/07 09:31:14;;;;;;;3.3;1.9;;;;;;;10.63;66.61426;947.5041;;;;
2020/11/07 09:33:39;;;;;;;1.2;0.9;;;;;;;10.75;64.33496;947.4216;;;;
2020/11/07 09:36:04;;;;;;;1.5;0.9;;;;;;;10.98;65.47949;947.4672;;;;
2020/11/07 09:38:30;;;;;;;14.2;2;;;;;;;11.17;65.88379;947.4581;;;;
2020/11/07 09:40:56;;;;;;;4.7;2;;;;;;;11.39;64.27051;947.3506;;;;
2020/11/07 09:43:21;;;;;;;0.9;0.7;;;;;;;11.57;62.2959;947.3419;;;;
2020/11/07 09:45:53;;;;;;;1.5;1;;;;;;;11.71;64.26074;947.3186;;;;
2020/11/07 09:48:19;;;;;;;16.3;7.7;;;;;;;12.01;64.50098;947.2555;;;;
2020/11/07 09:50:44;;;;;;;9;4.2;;;;;;;12.18;63.99902;947.3116;;;;
2020/11/07 09:53:10;;;;;;;7.5;3.8;;;;;;;12.16;61.48535;947.2664;;;;
2020/11/07 09:55:34;;;;;;;3.1;1.4;;;;;;;12.01;61.06348;947.2307;;;;
2020/11/07 09:58:02;;;;;;;2.9;1.5;;;;;;;12.11;61.03223;947.1841;;;;
2020/11/07 10:00:27;;;;;;;4.2;2.3;;;;;;;12.32;60.84375;947.1209;;;;
2020/11/07 10:02:54;;;;;;;8.3;4;;;;;;;12.75;59.69824;947.0428;;;;
2020/11/07 10:05:20;;;;;;;0.8;0.7;;;;;;;13.31;53.97266;946.9472;;;;
2020/11/07 10:07:49;;;;;;;1.1;0.9;;;;;;;13.97;51.92578;946.9501;;;;
2020/11/07 10:10:14;;;;;;;2.2;1.4;;;;;;;14.29;49.31445;946.9705;;;;
2020/11/07 10:12:41;;;;;;;1.1;0.8;;;;;;;14.41;48.9707;946.8105;;;;
2020/11/07 10:15:06;;;;;;;4.4;0.4;;;;;;;14.25;49.06836;946.8205;;;;
2020/11/07 10:17:31;;;;;;;1.2;0.6;;;;;;;14.1;51.00879;946.8011;;;;
2020/11/07 10:19:56;;;;;;;1.3;0.8;;;;;;;13.98;50.41797;946.738;;;;
2020/11/07 10:22:22;;;;;;;1.3;1;;;;;;;13.99;53.22852;946.6956;;;;
2020/11/07 10:24:48;;;;;;;2.4;1.5;;;;;;;13.98;53.42188;946.637;;;;
2020/11/07 10:27:13;;;;;;;2.8;1.1;;;;;;;14.05;53.52246;946.5011;;;;
2020/11/07 10:29:38;;;;;;;2.1;0.8;;;;;;;14.22;54.53418;946.5261;;;;
2020/11/07 10:32:03;;;;;;;4.2;1.3;;;;;;;14.3;51.19238;946.4323;;;;
2020/11/07 10:34:28;;;;;;;3.9;0.8;;;;;;;14.42;52.05859;946.4648;;;;
2020/11/07 10:36:54;;;;;;;0.6;0.5;;;;;;;14.52;51.7959;946.4418;;;;
2020/11/07 10:39:19;;;;;;;0.5;0.3;;;;;;;14.4;52.13867;946.3409;;;;
2020/11/07 10:41:44;;;;;;;0.6;0.4;;;;;;;14.41;49.91602;946.3555;;;;
2020/11/07 10:44:09;;;;;;;1.7;0.6;;;;;;;14.52;50.68848;946.3368;;;;
2020/11/07 10:46:36;;;;;;;0.6;0.4;;;;;;;14.72;50.41211;946.3577;;;;
2020/11/07 10:49:02;;;;;;;1;0.6;;;;;;;14.74;47.50977;946.2504;;;;
2020/11/07 10:51:30;;;;;;;0.9;0.7;;;;;;;14.87;47.38477;946.2106;;;;
2020/11/07 10:53:55;;;;;;;0.5;0.4;;;;;;;14.94;43.86328;946.162;;;;
2020/11/07 10:56:21;;;;;;;1.5;1;;;;;;;15.11;46.29199;946.1055;;;;
2020/11/07 10:58:47;;;;;;;2.9;0.9;;;;;;;15.25;47.47168;946.0927;;;;
2020/11/07 11:01:12;;;;;;;2.3;1.3;;;;;;;15.44;47.34375;946.0359;;;;
2020/11/07 11:03:39;;;;;;;2.4;0.4;;;;;;;15.56;44.86133;946.0563;;;;
2020/11/07 11:06:04;;;;;;;1.1;0.5;;;;;;;15.57;46.13281;945.98;;;;
2020/11/07 11:08:29;;;;;;;0.5;0.5;;;;;;;15.57;47.21875;945.9993;;;;
2020/11/07 11:10:55;;;;;;;0.7;0.6;;;;;;;15.71;47.86914;945.9336;;;;
2020/11/07 11:13:21;;;;;;;0.9;0.5;;;;;;;15.71;46.06641;945.8164;;;;
2020/11/07 11:15:46;;;;;;;0.5;0.4;;;;;;;15.76;46.33789;945.8141;;;;
2020/11/07 11:18:13;;;;;;;0.8;0.4;;;;;;;15.71;43.94043;945.7922;;;;
2020/11/07 11:20:38;;;;;;;1.5;0.3;;;;;;;15.69;43.00293;945.7328;;;;
2020/11/07 11:23:03;;;;;;;0.6;0.6;;;;;;;15.88;43.96875;945.6948;;;;
2020/11/07 11:25:28;;;;;;;0.7;0.5;;;;;;;16.19;44.0459;945.6711;;;;
2020/11/07 11:27:54;;;;;;;1.3;0.7;;;;;;;16.41;42.96973;945.6351;;;;
2020/11/07 11:30:19;;;;;;;0.8;0.6;;;;;;;16.95;40.83301;945.6125;;;;
2020/11/07 11:32:47;;;;;;;0.5;0.4;;;;;;;18.67;38.34082;945.5576;;;;
2020/11/07 11:35:13;;;;;;;8.2;0.9;;;;;;;21.01;33.64355;945.52;;;;
2020/11/07 11:37:40;;;;;;;1;0.5;;;;;;;23.55;29.02637;945.5469;;;;
2020/11/07 11:40:05;;;;;;;0.8;0.3;;;;;;;25.85;24.51855;945.4233;;;;
2020/11/07 11:42:33;;;;;;;4.7;0.6;;;;;;;27.65;22.74219;945.4659;;;;
2020/11/07 11:44:58;;;;;;;1;0.4;;;;;;;29.11;21.51758;945.4111;;;;
2020/11/07 11:47:23;;;;;;;0.8;0.6;;;;;;;30.66;20.64746;945.3756;;;;
2020/11/07 11:49:49;;;;;;;0.2;0.1;;;;;;;32.19;18.51074;945.385;;;;
2020/11/07 11:52:13;;;;;;;0.6;0.2;;;;;;;33.21;17.95215;945.3814;;;;
2020/11/07 11:54:39;;;;;;;0.9;0.5;;;;;;;34.3;17.35645;945.3069;;;;
2020/11/07 11:57:05;;;;;;;0.2;0.2;;;;;;;34.76;16.69922;945.2989;;;;
2020/11/07 11:59:31;;;;;;;0.3;0.2;;;;;;;35.02;18.6748;945.3138;;;;
2020/11/07 12:01:56;;;;;;;1;0.3;;;;;;;35.1;19.41406;945.2905;;;;
2020/11/07 12:04:22;;;;;;;0.5;0.3;;;;;;;35.58;19.25293;945.2328;;;;
2020/11/07 12:06:47;;;;;;;0.6;0.4;;;;;;;34.58;20.0791;945.1947;;;;
2020/11/07 12:09:12;;;;;;;1.4;0.5;;;;;;;34.27;20.27051;945.1437;;;;
2020/11/07 12:11:39;;;;;;;2.1;0.4;;;;;;;33.89;20.53027;945.0767;;;;
2020/11/07 12:14:04;;;;;;;2.3;0.5;;;;;;;33.52;20.83789;945.1122;;;;
2020/11/07 12:16:30;;;;;;;1.6;0.4;;;;;;;33.09;21.68359;945.1058;;;;
2020/11/07 12:18:55;;;;;;;1.3;0.6;;;;;;;33.42;20.85742;945.077;;;;
2020/11/07 12:21:21;;;;;;;0.4;0.3;;;;;;;33.85;19.86621;945.0941;;;;
2020/11/07 12:23:46;;;;;;;0.8;0.5;;;;;;;34.1;19.54004;945.0452;;;;
2020/11/07 12:26:12;;;;;;;0.6;0.2;;;;;;;34.38;18.96191;945.0618;;;;
2020/11/07 12:28:37;;;;;;;1.1;0.5;;;;;;;34.78;18.99023;945.0303;;;;
2020/11/07 12:31:06;;;;;;;0.7;0.3;;;;;;;35.05;17.68652;945.0151;;;;
2020/11/07 12:33:31;;;;;;;0.2;0.2;;;;;;;35.16;18.0293;945.0139;;;;
2020/11/07 12:35:57;;;;;;;1;0.5;;;;;;;35;18.3125;944.9786;;;;
2020/11/07 12:38:22;;;;;;;0.2;0.2;;;;;;;35.16;18.53613;944.9579;;;;
2020/11/07 12:40:47;;;;;;;0.2;0.1;;;;;;;35.25;18.40625;944.9953;;;;
2020/11/07 12:43:13;;;;;;;0.3;0.2;;;;;;;35.49;17.84863;944.998;;;;
2020/11/07 12:45:44;;;;;;;0.4;0.3;;;;;;;35.67;18.19434;945.0181;;;;
2020/11/07 12:48:11;;;;;;;0.4;0.3;;;;;;;35.99;18.19434;944.9558;;;;
2020/11/07 12:50:35;;;;;;;0.4;0.3;;;;;;;35.8;17.93359;944.9835;;;;
2020/11/07 12:53:00;;;;;;;0.6;0.4;;;;;;;35.68;18.2666;945.0133;;;;
2020/11/07 12:55:26;;;;;;;0.9;0.7;;;;;;;35.62;18.44629;944.965;;;;
2020/11/07 12:57:51;;;;;;;0.5;0.2;;;;;;;35.05;18.7002;944.9992;;;;
2020/11/07 13:00:16;;;;;;;0.5;0.3;;;;;;;35.93;18.88086;944.9069;;;;
2020/11/07 13:02:42;;;;;;;0.6;0.3;;;;;;;33.96;20.24414;944.9356;;;;
2020/11/07 13:05:07;;;;;;;0.4;0.3;;;;;;;32.12;22.52441;944.9079;;;;
2020/11/07 13:07:32;;;;;;;0.5;0.4;;;;;;;31.88;22.94336;944.8655;;;;
2020/11/07 13:09:57;;;;;;;0.8;0.4;;;;;;;31.57;23.6582;944.8328;;;;
2020/11/07 13:12:23;;;;;;;0.5;0.4;;;;;;;32.47;22.92578;944.8226;;;;
2020/11/07 13:14:48;;;;;;;0.4;0.3;;;;;;;33.74;21.78613;944.7967;;;;
2020/11/07 13:17:13;;;;;;;1.3;0.4;;;;;;;33.93;20.92871;944.7739;;;;
2020/11/07 13:19:38;;;;;;;0.5;0.4;;;;;;;34.28;20.54688;944.802;;;;
2020/11/07 13:22:07;;;;;;;2.6;0.6;;;;;;;33.45;21.7002;944.8281;;;;
2020/11/07 13:24:36;;;;;;;0.3;0.3;;;;;;;32.55;22.41309;944.7605;;;;
2020/11/07 13:26:57;;;;;;;0.4;0.3;;;;;;;32.98;22.09766;944.8142;;;;
2020/11/07 13:29:21;;;;;;;0.8;0.4;;;;;;;33.97;21.32813;944.8162;;;;
2020/11/07 13:31:46;;;;;;;1;0.3;;;;;;;34.85;20.42871;944.8286;;;;
2020/11/07 13:34:11;;;;;;;0.7;0.3;;;;;;;34.41;20.80664;944.8137;;;;
2020/11/07 13:36:37;;;;;;;1;0.4;;;;;;;34.51;20.31641;944.8254;;;;
2020/11/07 13:39:01;;;;;;;0.4;0.4;;;;;;;34.23;20.9668;944.8027;;;;
2020/11/07 13:41:27;;;;;;;0.5;0.4;;;;;;;34.06;21.24805;944.8331;;;;
2020/11/07 13:43:52;;;;;;;0.6;0.4;;;;;;;34.56;20.62012;944.8008;;;;
2020/11/07 13:46:20;;;;;;;0.6;0.5;;;;;;;35.13;20.13965;944.8644;;;;
2020/11/07 13:48:45;;;;;;;2;0.4;;;;;;;34.97;20.16895;944.8484;;;;
2020/11/07 13:51:10;;;;;;;0.8;0.5;;;;;;;33.42;21.50684;944.8008;;;;
2020/11/07 13:53:35;;;;;;;0.8;0.5;;;;;;;33.25;22.14746;944.8059;;;;
2020/11/07 13:56:02;;;;;;;0.4;0.3;;;;;;;33.08;22.00684;944.7531;;;;
2020/11/07 13:58:27;;;;;;;0.7;0.6;;;;;;;32.69;22.73242;944.7619;;;;
2020/11/07 14:00:53;;;;;;;0.6;0.4;;;;;;;32.97;22.39844;944.7406;;;;
2020/11/07 14:03:18;;;;;;;0.2;0.2;;;;;;;33.17;22.15625;944.7375;;;;
2020/11/07 14:05:45;;;;;;;0.6;0.3;;;;;;;32.76;22.30371;944.7614;;;;
2020/11/07 14:08:10;;;;;;;0.7;0.3;;;;;;;31.94;23.19824;944.7673;;;;
2020/11/07 14:10:38;;;;;;;1.2;0.6;;;;;;;31.98;23.02051;944.7648;;;;
2020/11/07 14:13:03;;;;;;;0.7;0.4;;;;;;;31.83;23.4082;944.7514;;;;
2020/11/07 14:15:30;;;;;;;0.5;0.5;;;;;;;31.23;23.9873;944.7339;;;;
2020/11/07 14:17:58;;;;;;;0.5;0.4;;;;;;;30.83;24.56445;944.7658;;;;
2020/11/07 14:20:23;;;;;;;1;0.5;;;;;;;31.6;23.875;944.7952;;;;
2020/11/07 14:22:49;;;;;;;0.3;0.3;;;;;;;32.2;23.10352;944.7913;;;;
2020/11/07 14:25:14;;;;;;;0.7;0.5;;;;;;;32.49;22.69824;944.8246;;;;
2020/11/07 14:27:40;;;;;;;0.4;0.4;;;;;;;32.21;22.98438;944.8097;;;;
2020/11/07 14:30:05;;;;;;;0.4;0.4;;;;;;;32.21;23.03223;944.7523;;;;
2020/11/07 14:32:32;;;;;;;0.8;0.7;;;;;;;31.07;24.26563;944.7498;;;;
2020/11/07 14:34:57;;;;;;;1.4;0.4;;;;;;;31.29;24.26563;944.7279;;;;
2020/11/07 14:37:24;;;;;;;0.3;0.3;;;;;;;31.24;24.4668;944.7086;;;;
2020/11/07 14:39:49;;;;;;;0.4;0.4;;;;;;;30.76;24.71582;944.743;;;;
2020/11/07 14:42:15;;;;;;;0.7;0.5;;;;;;;30.75;24.82227;944.6995;;;;
2020/11/07 14:44:40;;;;;;;0.6;0.5;;;;;;;30.23;25.36719;944.6995;;;;
2020/11/07 14:47:08;;;;;;;1.2;0.6;;;;;;;28.26;28.28711;944.7463;;;;
2020/11/07 14:49:33;;;;;;;1.9;0.6;;;;;;;26.29;31.45313;944.8254;;;;
2020/11/07 14:51:59;;;;;;;2.6;0.7;;;;;;;24.66;34.41602;944.7928;;;;
2020/11/07 14:54:24;;;;;;;19.6;0.7;;;;;;;23.37;37.19727;944.7918;;;;
2020/11/07 14:56:52;;;;;;;1.5;0.8;;;;;;;22.24;39.36621;944.8024;;;;
2020/11/07 14:59:19;;;;;;;0.7;0.3;;;;;;;21.47;40.98242;944.7786;;;;
2020/11/07 15:01:42;;;;;;;0.7;0.4;;;;;;;20.63;43.48828;944.7634;;;;
2020/11/07 15:04:08;;;;;;;0.6;0.4;;;;;;;19.95;44.45996;944.7449;;;;
2020/11/07 15:06:33;;;;;;;0.6;0.3;;;;;;;19.41;46.01367;944.7761;;;;
2020/11/07 15:08:58;;;;;;;1.1;0.7;;;;;;;18.8;47.8457;944.8155;;;;
2020/11/07 15:11:23;;;;;;;1.4;0.5;;;;;;;18.34;49.07422;944.8236;;;;
2020/11/07 15:13:49;;;;;;;0.9;0.7;;;;;;;17.96;50.05566;944.8741;;;;
2020/11/07 15:16:15;;;;;;;0.7;0.6;;;;;;;17.64;51.16699;944.9033;;;;
2020/11/07 15:18:39;;;;;;;1.4;0.8;;;;;;;17.32;52;944.8823;;;;
2020/11/07 15:21:05;;;;;;;9.6;0.9;;;;;;;17.03;53.12402;944.9005;;;;
2020/11/07 15:23:30;;;;;;;1.7;0.9;;;;;;;16.81;54.11523;944.8599;;;;
2020/11/07 15:25:56;;;;;;;0.7;0.7;;;;;;;16.36;55.47266;944.915;;;;
2020/11/07 15:28:22;;;;;;;1.2;0.8;;;;;;;16.11;56.03223;944.8733;;;;
2020/11/07 15:30:47;;;;;;;1.1;0.6;;;;;;;15.92;57.23242;944.9615;;;;
2020/11/07 15:33:13;;;;;;;3;1.7;;;;;;;15.53;59.09961;944.9612;;;;
2020/11/07 15:35:38;;;;;;;0.7;0.7;;;;;;;15.07;60.69727;945.0159;;;;
2020/11/07 15:38:04;;;;;;;2;1.2;;;;;;;14.82;61.75879;945.0637;;;;
2020/11/07 15:40:29;;;;;;;4.2;1.6;;;;;;;14.74;61.37891;945.0463;;;;
2020/11/07 15:42:55;;;;;;;2.4;0.9;;;;;;;14.6;61.12891;945.0405;;;;
2020/11/07 15:45:22;;;;;;;2.6;1;;;;;;;14.56;61.24902;945.0595;;;;
2020/11/07 15:47:48;;;;;;;2.7;0.9;;;;;;;14.48;61.44531;945.0719;;;;
2020/11/07 15:50:13;;;;;;;1.2;0.8;;;;;;;14.34;61.32227;945.0345;;;;
2020/11/07 15:52:39;;;;;;;3.6;1.4;;;;;;;14.21;61.97168;945.1167;;;;
2020/11/07 15:55:04;;;;;;;1.7;1.1;;;;;;;14.11;61.95605;945.1248;;;;
2020/11/07 15:57:29;;;;;;;4.8;1.7;;;;;;;14;62.02246;945.1334;;;;
2020/11/07 15:59:54;;;;;;;2;1.2;;;;;;;13.85;62.12695;945.1683;;;;
2020/11/07 16:02:23;;;;;;;2.3;1.2;;;;;;;13.61;61.67969;945.1729;;;;
2020/11/07 16:04:48;;;;;;;3;1.6;;;;;;;13.45;61.30078;945.1683;;;;
2020/11/07 16:07:14;;;;;;;2.2;1.3;;;;;;;13.33;61.70898;945.2316;;;;
2020/11/07 16:09:39;;;;;;;3.1;1.8;;;;;;;13.16;60.95996;945.2115;;;;
2020/11/07 16:12:06;;;;;;;3.1;2.1;;;;;;;12.75;60.75391;945.1432;;;;
2020/11/07 16:14:32;;;;;;;5;1.4;;;;;;;12.55;61.60938;945.2219;;;;
2020/11/07 16:17:01;;;;;;;4.7;2.2;;;;;;;12.44;62.2373;945.2421;;;;
2020/11/07 16:19:26;;;;;;;3.3;1.7;;;;;;;12.22;62.49121;945.2204;;;;
2020/11/07 16:21:53;;;;;;;3.9;1.8;;;;;;;12.09;63.61816;945.2796;;;;
2020/11/07 16:24:18;;;;;;;3.4;2.1;;;;;;;11.97;63.55371;945.2767;;;;